Nyk Romulus — 9V7644 — position and weather

sailwx.info

Track history (hours):
 
Tides and Currents Weather Stations Pressure Air Temp Water Temp Dewpoint Dewpoint Depression Visibility Wind Speed Wind Dir Waves Ship Positions

Nyk Romulus

Last reported at 2018-Sep-21 03:47 UTC. Time now 2018-Sep-22 01:06 UTC.
Position N 26°30' W 114°45'.

Length 294 m; draft 10.2 m.

Type: Cargo ship. MMSI: 563079000.

Date/timePositionNaut miles runAvg speedWind from/ knotsBaromVisibWave heightAir tempDewpointWater temp
2018-Sep-21 03:47N 26°30' W 114°45'721.4
2018-Sep-21 03:27N 26°35' W 114°50'2221.3
2018-Sep-21 02:24N 26°53' W 115°05'1821.0
2018-Sep-21 01:34N 27°08' W 115°17'120.6
2018-Sep-21 01:30N 27°09' W 115°18'920.6
2018-Sep-21 01:03N 27°16' W 115°24'120.9
2018-Sep-21 01:00N 27°17' W 115°24'3520.8
2018-Sep-20 23:18N 27°46' W 115°48'18320.3
2018-Sep-20 14:16N 30°37' W 117°01'720.0
2018-Sep-20 13:56N 30°43' W 117°04'1920.2
2018-Sep-20 13:00N 31°01' W 117°11'1020.4
2018-Sep-20 12:30N 31°11' W 117°15'920.1
2018-Sep-20 12:03N 31°19' W 117°18'119.8
2018-Sep-20 12:00N 31°20' W 117°18'1020.0
2018-Sep-20 11:31N 31°30' W 117°23'919.8
2018-Sep-20 11:04N 31°38' W 117°26'119.4
2018-Sep-20 11:00N 31°39' W 117°26'1019.8
2018-Sep-20 10:30N 31°48' W 117°30'920.3
2018-Sep-20 10:04N 31°57' W 117°33'119.8
2018-Sep-20 10:00N 31°58' W 117°34'1020.4
2018-Sep-20 09:30N 32°08' W 117°38'920.4
2018-Sep-20 09:03N 32°16' W 117°41'120.7
2018-Sep-20 09:00N 32°17' W 117°41'1020.3
2018-Sep-20 08:30N 32°27' W 117°45'920.6
2018-Sep-20 08:03N 32°36' W 117°49'120.6
2018-Sep-20 08:00N 32°37' W 117°49'1020.2
2018-Sep-20 07:30N 32°46' W 117°54'920.3
2018-Sep-20 07:03N 32°55' W 117°57'120.5
2018-Sep-20 07:00N 32°56' W 117°58'918.0
2018-Sep-20 06:30N 33°04' W 118°00'510.3
2018-Sep-20 06:03N 33°09' W 118°02'110.2
2018-Sep-20 06:00N 33°09' W 118°02'510.0
2018-Sep-20 05:30N 33°14' W 118°04'4 9.9
2018-Sep-20 05:03N 33°18' W 118°06'0 9.8
2018-Sep-20 05:00N 33°19' W 118°06'5 9.8
2018-Sep-20 04:30N 33°23' W 118°08'410.0
2018-Sep-20 04:03N 33°28' W 118°10'110.0
2018-Sep-20 04:00N 33°28' W 118°10'510.0
2018-Sep-20 03:30N 33°33' W 118°12'510.0
2018-Sep-20 03:03N 33°37' W 118°13'010.1
2018-Sep-20 03:00N 33°38' W 118°14'5 9.7
2018-Sep-20 02:30N 33°42' W 118°15'3 6.0
2018-Sep-20 02:03N 33°45' W 118°17'0 4.2
2018-Sep-20 02:00N 33°45' W 118°16'1 1.8
2018-Sep-20 01:30N 33°46' W 118°17'0 0.0
2018-Sep-20 01:03N 33°46' W 118°17'0 0.1
2018-Sep-20 01:00N 33°46' W 118°17'0 0.0
2018-Sep-20 00:30N 33°46' W 118°17'0 0.0
2018-Sep-20 00:03N 33°46' W 118°17'0 0.0
2018-Sep-20 00:00N 33°46' W 118°17'0 0.0
2018-Sep-19 23:30N 33°46' W 118°17'0 0.0
2018-Sep-19 23:03N 33°46' W 118°17'0 0.0
2018-Sep-19 23:00N 33°46' W 118°17'0 0.0
2018-Sep-19 22:30N 33°46' W 118°17'0 0.0
2018-Sep-19 22:03N 33°46' W 118°17'0 0.1
2018-Sep-19 22:00N 33°46' W 118°17'0 0.0
2018-Sep-19 21:30N 33°46' W 118°17'0 0.0
2018-Sep-19 21:03N 33°46' W 118°17'0 0.0
2018-Sep-19 21:00N 33°46' W 118°17'0 0.0
2018-Sep-19 20:30N 33°46' W 118°17'0 0.0
2018-Sep-19 20:03N 33°46' W 118°17'0 0.1
2018-Sep-19 20:00N 33°46' W 118°17'0 0.0
2018-Sep-19 19:30N 33°46' W 118°17'0 0.0
2018-Sep-19 19:03N 33°46' W 118°17'0 0.0
2018-Sep-19 19:00N 33°46' W 118°17'0 0.0
2018-Sep-19 18:30N 33°46' W 118°17'0 0.0
2018-Sep-19 18:03N 33°46' W 118°17'0 0.0
2018-Sep-19 18:00N 33°46' W 118°17'0 0.0
2018-Sep-19 17:30N 33°46' W 118°17'0 0.0
2018-Sep-19 17:03N 33°46' W 118°17'0 0.0
2018-Sep-19 17:00N 33°46' W 118°17'0 0.0
2018-Sep-19 16:30N 33°46' W 118°17'0 0.0
2018-Sep-19 16:03N 33°46' W 118°17'0 0.1
2018-Sep-19 16:00N 33°46' W 118°17'0 0.0
2018-Sep-19 15:30N 33°46' W 118°17'0 0.0
2018-Sep-19 15:03N 33°46' W 118°17'0 0.0
2018-Sep-19 15:00N 33°46' W 118°17'0 0.0
2018-Sep-19 14:03N 33°46' W 118°17'0 0.0
2018-Sep-19 13:30N 33°46' W 118°17'0 0.0
2018-Sep-19 13:03N 33°46' W 118°17'0 0.0
2018-Sep-19 13:00N 33°46' W 118°17'0 0.0
2018-Sep-19 12:30N 33°46' W 118°17'0 0.0
2018-Sep-19 12:03N 33°46' W 118°17'0 0.1
2018-Sep-19 12:00N 33°46' W 118°17'0 0.0
2018-Sep-19 11:30N 33°46' W 118°17'0 0.0
2018-Sep-19 11:03N 33°46' W 118°17'0 0.0
2018-Sep-19 11:00N 33°46' W 118°17'0 0.0
2018-Sep-19 10:30N 33°46' W 118°17'0 0.0
2018-Sep-19 10:03N 33°46' W 118°17'0 0.0
2018-Sep-19 10:00N 33°46' W 118°17'0 0.0
2018-Sep-19 09:30N 33°46' W 118°17'0 0.0
2018-Sep-19 09:03N 33°46' W 118°17'0 0.0
2018-Sep-19 09:00N 33°46' W 118°17'0 0.0
2018-Sep-19 08:30N 33°46' W 118°17'0 0.0
2018-Sep-19 08:03N 33°46' W 118°17'0 0.0
2018-Sep-19 08:00N 33°46' W 118°17'0 0.0
2018-Sep-19 07:30N 33°46' W 118°17'0 0.0
2018-Sep-19 07:03N 33°46' W 118°17'0 0.0
2018-Sep-19 07:00N 33°46' W 118°17'0 0.0
2018-Sep-19 06:30N 33°46' W 118°17'0 0.0
2018-Sep-19 06:03N 33°46' W 118°17'0 0.0
2018-Sep-19 06:00N 33°46' W 118°17'0 0.0
2018-Sep-19 05:30N 33°46' W 118°17'0 0.0
2018-Sep-19 05:03N 33°46' W 118°17'0 0.0
2018-Sep-19 05:00N 33°46' W 118°17'0 0.0
2018-Sep-19 04:30N 33°46' W 118°17'0 0.0
2018-Sep-19 04:03N 33°46' W 118°17'0 0.0
2018-Sep-19 04:00N 33°46' W 118°17'0 0.0
2018-Sep-19 03:30N 33°46' W 118°17'0 0.0
2018-Sep-19 03:03N 33°46' W 118°17'0 0.0
2018-Sep-19 03:00N 33°46' W 118°17'0 0.0
2018-Sep-19 02:30N 33°46' W 118°17'0 0.0
2018-Sep-19 02:03N 33°46' W 118°17'0 0.0
2018-Sep-19 02:00N 33°46' W 118°17'0 0.0
2018-Sep-19 01:30N 33°46' W 118°17'0 0.0
2018-Sep-19 01:03N 33°46' W 118°17'0 0.0
2018-Sep-19 01:00N 33°46' W 118°17'0 0.0
2018-Sep-19 00:30N 33°46' W 118°17'0 0.0
2018-Sep-19 00:03N 33°46' W 118°17'0 0.0
2018-Sep-19 00:00N 33°46' W 118°17'0 0.0
2018-Sep-18 23:30N 33°46' W 118°17'0 0.0
2018-Sep-18 23:03N 33°46' W 118°17'0 0.1
2018-Sep-18 23:00N 33°46' W 118°17'0 0.0
2018-Sep-18 22:30N 33°46' W 118°17'0 0.0
2018-Sep-18 22:03N 33°46' W 118°17'0 0.0
2018-Sep-18 22:00N 33°46' W 118°17'0 0.0
2018-Sep-18 21:30N 33°46' W 118°17'0 0.0
2018-Sep-18 21:03N 33°46' W 118°17'0 0.0
2018-Sep-18 21:00N 33°46' W 118°17'0 0.0
2018-Sep-18 20:30N 33°46' W 118°17'0 0.0
2018-Sep-18 20:03N 33°46' W 118°17'0 0.1
2018-Sep-18 20:00N 33°46' W 118°17'0 0.0
2018-Sep-18 19:30N 33°46' W 118°17'0 0.0
2018-Sep-18 19:03N 33°46' W 118°17'0 0.1
2018-Sep-18 19:00N 33°46' W 118°17'0 0.0
2018-Sep-18 18:30N 33°46' W 118°17'0 0.0
2018-Sep-18 18:03N 33°46' W 118°17'0 0.2
2018-Sep-18 18:00N 33°46' W 118°17'0 0.0
2018-Sep-18 17:30N 33°46' W 118°17'0 0.0
2018-Sep-18 17:03N 33°46' W 118°17'0 0.1
2018-Sep-18 17:00N 33°46' W 118°17'0 0.0
2018-Sep-18 16:30N 33°46' W 118°17'0 0.0
2018-Sep-18 16:03N 33°46' W 118°17'0 0.0
2018-Sep-18 16:00N 33°46' W 118°17'0 0.0
2018-Sep-18 15:30N 33°46' W 118°17'0 0.0
2018-Sep-18 15:03N 33°46' W 118°17'0 0.1
2018-Sep-18 15:00N 33°46' W 118°17'2 1.7
2018-Sep-18 14:03N 33°44' W 118°17'0 4.4
2018-Sep-18 14:00N 33°44' W 118°16'3 6.4
2018-Sep-18 13:30N 33°41' W 118°14'4 8.0
2018-Sep-18 13:03N 33°38' W 118°14'0 7.5
2018-Sep-18 13:01N 33°37' W 118°14'3 6.7
2018-Sep-18 12:30N 33°36' W 118°18'4 8.4
2018-Sep-18 12:03N 33°37' W 118°23'0 8.7
2018-Sep-18 12:00N 33°37' W 118°23'4 9.0
2018-Sep-18 11:30N 33°40' W 118°28'4 9.0
2018-Sep-18 11:03N 33°42' W 118°32'0 8.6
2018-Sep-18 11:00N 33°42' W 118°32'5 9.1
2018-Sep-18 10:30N 33°44' W 118°37'4 9.0
2018-Sep-18 10:03N 33°46' W 118°41'0 8.5
2018-Sep-18 10:00N 33°46' W 118°42'4 8.9
2018-Sep-18 09:30N 33°49' W 118°46'4 9.2
2018-Sep-18 09:03N 33°51' W 118°51'110.4
2018-Sep-18 09:00N 33°51' W 118°51'611.9
2018-Sep-18 08:30N 33°54' W 118°57'511.9
2018-Sep-18 08:03N 33°56' W 119°03'112.2
2018-Sep-18 08:00N 33°57' W 119°04'714.8
2018-Sep-18 07:30N 34°00' W 119°11'716.0
2018-Sep-18 07:04N 34°03' W 119°19'116.5
2018-Sep-18 07:01N 34°04' W 119°20'816.2
2018-Sep-18 06:30N 34°06' W 119°30'715.6
2018-Sep-18 06:03N 34°07' W 119°38'115.5
2018-Sep-18 06:00N 34°08' W 119°39'815.7
2018-Sep-18 05:30N 34°10' W 119°48'715.8
2018-Sep-18 05:03N 34°12' W 119°56'116.3
2018-Sep-18 05:00N 34°12' W 119°57'815.8
2018-Sep-18 04:31N 34°14' W 120°06'716.0
2018-Sep-18 04:03N 34°16' W 120°15'116.1
2018-Sep-18 04:00N 34°16' W 120°16'815.9
2018-Sep-18 03:29N 34°18' W 120°25'715.7
2018-Sep-18 03:02N 34°20' W 120°34'116.3
2018-Sep-18 03:01N 34°20' W 120°34'815.6
2018-Sep-18 02:30N 34°22' W 120°43'715.6
2018-Sep-18 02:04N 34°24' W 120°52'115.4
2018-Sep-18 02:01N 34°24' W 120°53'714.8
2018-Sep-18 01:31N 34°29' W 120°59'715.6
2018-Sep-18 01:03N 34°35' W 121°04'115.7
2018-Sep-18 01:00N 34°36' W 121°05'612.6
2018-Sep-18 00:30N 34°41' W 121°09'817.0
2018-Sep-18 00:03N 34°47' W 121°15'117.8
2018-Sep-18 00:00N 34°48' W 121°15'917.5
2018-Sep-17 23:29N 34°55' W 121°22'717.3
2018-Sep-17 23:03N 35°01' W 121°27'117.1
2018-Sep-17 23:00N 35°02' W 121°28'917.8
2018-Sep-17 22:30N 35°09' W 121°35'817.7
2018-Sep-17 22:03N 35°15' W 121°40'118.0
2018-Sep-17 22:00N 35°16' W 121°41'917.5
2018-Sep-17 21:30N 35°23' W 121°47'817.6
2018-Sep-17 21:03N 35°30' W 121°53'118.0
2018-Sep-17 21:00N 35°30' W 121°53'918.0
2018-Sep-17 20:30N 35°38' W 121°60'817.7
2018-Sep-17 20:03N 35°45' W 122°03'117.7
2018-Sep-17 20:00N 35°46' W 122°04'917.7
2018-Sep-17 19:30N 35°54' W 122°08'817.7
2018-Sep-17 19:03N 36°02' W 122°11'118.1
2018-Sep-17 19:00N 36°03' W 122°11'918.1
2018-Sep-17 18:30N 36°11' W 122°15'817.9
2018-Sep-17 18:03N 36°18' W 122°19'117.9
2018-Sep-17 18:00N 36°19' W 122°19'917.8
2018-Sep-17 17:30N 36°28' W 122°23'817.7
2018-Sep-17 17:03N 36°35' W 122°27'117.6
2018-Sep-17 17:00N 36°36' W 122°27'917.9
2018-Sep-17 16:30N 36°44' W 122°31'818.2
2018-Sep-17 16:03N 36°52' W 122°35'117.4
2018-Sep-17 16:00N 36°53' W 122°35'918.5
2018-Sep-17 15:30N 37°01' W 122°39'920.1
2018-Sep-17 15:03N 37°10' W 122°43'119.5
2018-Sep-17 15:00N 37°11' W 122°43'816.4
2018-Sep-17 14:30N 37°19' W 122°44'611.9
2018-Sep-17 14:00N 37°25' W 122°44'612.0
2018-Sep-17 13:30N 37°31' W 122°44'511.9
2018-Sep-17 13:03N 37°36' W 122°44'111.9
2018-Sep-17 13:00N 37°37' W 122°44'611.5
2018-Sep-17 12:30N 37°42' W 122°42'510.3
2018-Sep-17 12:03N 37°46' W 122°38'114.8
2018-Sep-17 12:00N 37°46' W 122°37'714.8
2018-Sep-17 11:30N 37°49' W 122°29'511.4
2018-Sep-17 11:03N 37°48' W 122°22'110.6
2018-Sep-17 11:00N 37°48' W 122°22'3 6.4
2018-Sep-17 10:30N 37°48' W 122°18'1 1.2
2018-Sep-17 10:03N 37°48' W 122°17'0 0.9
2018-Sep-17 10:00N 37°48' W 122°17'0 1.0
2018-Sep-17 09:30N 37°48' W 122°18'1 3.3
2018-Sep-17 09:03N 37°48' W 122°19'0 0.0
2018-Sep-17 08:57N 37°48' W 122°19'0 0.0
2018-Sep-17 08:27N 37°48' W 122°19'0 0.0
2018-Sep-17 08:00N 37°48' W 122°19'0 0.0
2018-Sep-17 07:30N 37°48' W 122°19'0 0.0
2018-Sep-17 07:03N 37°48' W 122°19'0 0.1
2018-Sep-17 07:00N 37°48' W 122°19'0 0.0
2018-Sep-17 06:30N 37°48' W 122°19'0 0.0
2018-Sep-17 06:03N 37°48' W 122°19'0 0.1
2018-Sep-17 05:57N 37°48' W 122°19'0 0.0
2018-Sep-17 05:30N 37°48' W 122°19'0 0.0
2018-Sep-17 05:03N 37°48' W 122°19'0 0.0
2018-Sep-17 05:00N 37°48' W 122°19'0 0.0
2018-Sep-17 04:30N 37°48' W 122°19'0 0.0
2018-Sep-17 04:03N 37°48' W 122°19'0 0.1
2018-Sep-17 03:57N 37°48' W 122°19'0 0.0
2018-Sep-17 03:27N 37°48' W 122°19'0 0.0
2018-Sep-17 03:03N 37°48' W 122°19'0 0.0
2018-Sep-17 03:00N 37°48' W 122°19'0 0.0
2018-Sep-17 02:27N 37°48' W 122°19'0 0.0
2018-Sep-17 02:03N 37°48' W 122°19'0 0.1
2018-Sep-17 01:57N 37°48' W 122°19'0 0.0
2018-Sep-17 01:27N 37°48' W 122°19'0 0.0
2018-Sep-17 01:03N 37°48' W 122°19'0 0.1
2018-Sep-17 01:00N 37°48' W 122°19'0 0.0
2018-Sep-17 00:30N 37°48' W 122°19'0 0.0
2018-Sep-17 00:03N 37°48' W 122°19'0 0.0
2018-Sep-16 23:57N 37°48' W 122°19'0 0.0
2018-Sep-16 23:30N 37°48' W 122°19'0 0.0
2018-Sep-16 23:03N 37°48' W 122°19'0 0.0
2018-Sep-16 23:00N 37°48' W 122°19'0 0.0
2018-Sep-16 22:30N 37°48' W 122°19'0 0.0
2018-Sep-16 22:03N 37°48' W 122°19'0 0.1
2018-Sep-16 22:00N 37°48' W 122°19'0 0.0
2018-Sep-16 21:30N 37°48' W 122°19'0 0.0
2018-Sep-16 21:03N 37°48' W 122°19'0 0.1
2018-Sep-16 21:00N 37°48' W 122°19'0 0.0
2018-Sep-16 20:30N 37°48' W 122°19'0 0.0
2018-Sep-16 20:03N 37°48' W 122°19'0 0.0
2018-Sep-16 19:57N 37°48' W 122°19'0 0.0
2018-Sep-16 19:27N 37°48' W 122°19'0 0.0
2018-Sep-16 19:03N 37°48' W 122°19'0 0.0
2018-Sep-16 19:00N 37°48' W 122°19'0 0.0
2018-Sep-16 18:24N 37°48' W 122°19'0 0.0
2018-Sep-16 18:03N 37°48' W 122°19'0 0.0
2018-Sep-16 18:00N 37°48' W 122°19'0 0.0
2018-Sep-16 17:27N 37°48' W 122°19'0 0.0
2018-Sep-16 17:03N 37°48' W 122°19'0 0.0
2018-Sep-16 17:00N 37°48' W 122°19'0 0.0
2018-Sep-16 16:30N 37°48' W 122°19'0 0.0
2018-Sep-16 16:03N 37°48' W 122°19'0 0.1
2018-Sep-16 15:57N 37°48' W 122°19'0 0.0
2018-Sep-16 15:30N 37°48' W 122°19'0 0.0
2018-Sep-16 15:03N 37°48' W 122°19'0 0.1
2018-Sep-16 15:00N 37°48' W 122°19'0 0.0
2018-Sep-16 14:30N 37°48' W 122°19'0 0.0
2018-Sep-16 13:30N 37°48' W 122°19'0 0.2
2018-Sep-16 13:03N 37°48' W 122°20'0 1.0
2018-Sep-16 13:00N 37°48' W 122°20'3 4.9
2018-Sep-16 12:30N 37°46' W 122°22'1 2.5
2018-Sep-16 12:01N 37°45' W 122°21'0 0.0
2018-Sep-16 11:58N 37°45' W 122°21'0 0.0
2018-Sep-16 11:28N 37°45' W 122°21'0 0.0
2018-Sep-16 11:01N 37°45' W 122°21'0 0.1
2018-Sep-16 10:55N 37°45' W 122°21'0 0.1
2018-Sep-16 10:25N 37°45' W 122°21'0 0.0
2018-Sep-16 10:01N 37°45' W 122°21'0 0.1
2018-Sep-16 09:58N 37°45' W 122°21'0 0.0
2018-Sep-16 09:25N 37°45' W 122°21'0 0.0
2018-Sep-16 09:01N 37°45' W 122°21'0 0.1
2018-Sep-16 08:58N 37°45' W 122°21'0 0.0
2018-Sep-16 08:28N 37°45' W 122°21'0 0.1
2018-Sep-16 07:49N 37°46' W 122°21'0 0.2
2018-Sep-16 07:28N 37°46' W 122°21'0 0.2
2018-Sep-16 07:01N 37°46' W 122°21'0 0.0
2018-Sep-16 06:55N 37°46' W 122°21'0 0.1
2018-Sep-16 06:28N 37°46' W 122°21'0 0.1
2018-Sep-16 06:01N 37°46' W 122°21'0 0.0
2018-Sep-16 05:58N 37°46' W 122°21'0 0.0
2018-Sep-16 05:28N 37°46' W 122°21'0 0.1
2018-Sep-16 05:01N 37°46' W 122°21'0 0.0
2018-Sep-16 04:58N 37°46' W 122°21'0 0.1
2018-Sep-16 04:28N 37°46' W 122°21'0 0.0
2018-Sep-16 04:01N 37°46' W 122°21'0 0.0
2018-Sep-16 03:58N 37°46' W 122°21'0 0.0
2018-Sep-16 03:25N 37°46' W 122°21'0 0.1
2018-Sep-16 03:01N 37°46' W 122°21'0 0.0
2018-Sep-16 02:58N 37°46' W 122°21'0 0.0
2018-Sep-16 02:28N 37°46' W 122°21'0 0.2
2018-Sep-16 01:55N 37°46' W 122°21'0 0.0
2018-Sep-16 01:28N 37°46' W 122°21'0 0.1
2018-Sep-16 01:01N 37°46' W 122°20'0 0.1
2018-Sep-16 00:55N 37°46' W 122°20'0 0.1
2018-Sep-16 00:25N 37°46' W 122°20'0 0.0
2018-Sep-16 00:01N 37°46' W 122°20'0 0.1
2018-Sep-15 23:58N 37°46' W 122°20'0 0.9
2018-Sep-15 23:30N 37°45' W 122°21'4 7.9
2018-Sep-15 23:03N 37°48' W 122°23'111.7
2018-Sep-15 23:00N 37°49' W 122°23'611.9
2018-Sep-15 22:30N 37°48' W 122°31'715.7
2018-Sep-15 22:03N 37°46' W 122°39'111.5
2018-Sep-15 22:00N 37°46' W 122°40'4 8.3
2018-Sep-15 21:30N 37°46' W 122°45'3 7.1
2018-Sep-15 21:03N 37°47' W 122°49'0 7.3
2018-Sep-15 21:00N 37°48' W 122°50'4 8.7
2018-Sep-15 20:30N 37°50' W 122°54'4 9.0
2018-Sep-15 20:03N 37°52' W 122°59'0 8.9
2018-Sep-15 20:00N 37°52' W 122°59'5 9.3
2018-Sep-15 19:30N 37°54' W 123°04'4 9.3
2018-Sep-15 19:03N 37°56' W 123°09'0 8.8
2018-Sep-15 19:00N 37°57' W 123°09'5 9.1
2018-Sep-15 18:30N 37°60' W 123°14'4 9.4
2018-Sep-15 18:03N 38°03' W 123°17'010.0
2018-Sep-15 18:00N 38°03' W 123°17'5 9.9
2018-Sep-15 17:30N 38°07' W 123°21'510.7
2018-Sep-15 17:03N 38°10' W 123°26'112.6
2018-Sep-15 17:00N 38°11' W 123°27'612.1
2018-Sep-15 16:30N 38°14' W 123°33'510.0
2018-Sep-15 16:03N 38°17' W 123°38'0 8.9
2018-Sep-15 16:00N 38°17' W 123°38'713.8
2018-Sep-15 15:30N 38°21' W 123°46'614.2
2018-Sep-15 15:03N 38°25' W 123°52'713.5
2018-Sep-15 14:31N 38°29' W 123°60'713.1
2018-Sep-15 14:01N 38°33' W 124°07'712.8
2018-Sep-15 13:28N 38°39' W 124°11'613.7
2018-Sep-15 13:04N 38°44' W 124°14'2013.5
2018-Sep-15 11:36N 39°02' W 124°24'114.0
2018-Sep-15 11:30N 39°03' W 124°24'36314.1
2018-Sep-14 09:43N 45°04' W 125°18'815.1
2018-Sep-14 09:11N 45°12' W 125°18'314.8
2018-Sep-14 08:58N 45°15' W 125°18'814.7
2018-Sep-14 08:25N 45°23' W 125°18'514.9
2018-Sep-14 08:03N 45°29' W 125°18'115.0
2018-Sep-14 08:00N 45°29' W 125°18'715.0
2018-Sep-14 07:31N 45°37' W 125°18'715.0
2018-Sep-14 07:03N 45°44' W 125°18'114.7
2018-Sep-14 06:59N 45°45' W 125°18'715.0
2018-Sep-14 06:30N 45°52' W 125°19'715.1
2018-Sep-14 06:03N 45°59' W 125°19'115.1
2018-Sep-14 06:00N 45°59' W 125°19'715.0
2018-Sep-14 05:30N 46°07' W 125°19'715.0
2018-Sep-14 05:03N 46°14' W 125°19'114.9
2018-Sep-14 05:00N 46°14' W 125°19'814.9
2018-Sep-14 04:30N 46°22' W 125°20'714.9
2018-Sep-14 04:03N 46°29' W 125°20'114.1
2018-Sep-14 04:00N 46°29' W 125°20'714.7
2018-Sep-14 03:31N 46°37' W 125°20'714.7
2018-Sep-14 03:03N 46°43' W 125°20'115.0
2018-Sep-14 03:00N 46°44' W 125°20'815.0
2018-Sep-14 02:30N 46°52' W 125°21'714.9
2018-Sep-14 02:03N 46°58' W 125°21'115.2
2018-Sep-14 02:00N 46°59' W 125°21'714.9
2018-Sep-14 01:31N 47°06' W 125°21'914.9
2018-Sep-14 00:53N 47°16' W 125°21'4414.5
2018-Sep-13 21:51N 47°60' W 125°21'1114.9
2018-Sep-13 21:08N 48°10' W 125°23'114.9
2018-Sep-13 21:03N 48°11' W 125°23'114.5
2018-Sep-13 21:01N 48°12' W 125°23'913.9
2018-Sep-13 20:21N 48°20' W 125°15'514.0
2018-Sep-13 20:02N 48°23' W 125°10'014.1
2018-Sep-13 20:00N 48°23' W 125°10'714.6
2018-Sep-13 19:30N 48°29' W 125°03'614.0
2018-Sep-13 19:04N 48°31' W 124°54'116.0
2018-Sep-13 19:01N 48°31' W 124°53'815.4
2018-Sep-13 18:31N 48°30' W 124°41'716.0
2018-Sep-13 18:04N 48°28' W 124°31'115.8
2018-Sep-13 18:01N 48°27' W 124°30'815.8
2018-Sep-13 17:31N 48°24' W 124°19'715.3
2018-Sep-13 17:03N 48°21' W 124°10'115.7
2018-Sep-13 17:00N 48°21' W 124°09'815.2
2018-Sep-13 16:30N 48°18' W 123°58'715.1
2018-Sep-13 16:03N 48°16' W 123°48'314.7
2018-Sep-13 15:51N 48°16' W 123°44'814.1
2018-Sep-13 15:17N 48°15' W 123°32'314.0
2018-Sep-13 15:04N 48°13' W 123°28'114.7
2018-Sep-13 15:01N 48°13' W 123°27'611.4
2018-Sep-13 14:30N 48°08' W 123°21'815.9
2018-Sep-13 13:59N 48°12' W 123°10'920.0
2018-Sep-13 13:30N 48°12' W 122°56'918.3
2018-Sep-13 13:02N 48°10' W 122°44'116.7
2018-Sep-13 13:00N 48°09' W 122°43'917.6
2018-Sep-13 12:30N 48°01' W 122°37'818.8
2018-Sep-13 12:03N 47°55' W 122°29'120.8
2018-Sep-13 12:00N 47°54' W 122°28'1020.8
2018-Sep-13 11:30N 47°44' W 122°26'817.6
2018-Sep-13 11:03N 47°36' W 122°23'0 6.2
2018-Sep-13 11:00N 47°36' W 122°23'2 3.5
2018-Sep-13 10:30N 47°35' W 122°21'0 0.0
2018-Sep-13 10:01N 47°35' W 122°21'0 0.0
2018-Sep-13 09:59N 47°35' W 122°21'0 0.0
2018-Sep-13 09:28N 47°35' W 122°21'0 0.0
2018-Sep-13 09:01N 47°35' W 122°21'0 0.1
2018-Sep-13 08:58N 47°35' W 122°21'0 0.0
2018-Sep-13 08:28N 47°35' W 122°21'0 0.0
2018-Sep-13 08:02N 47°35' W 122°21'0 0.0
2018-Sep-13 07:58N 47°35' W 122°21'0 0.0
2018-Sep-13 07:28N 47°35' W 122°21'0 0.0
2018-Sep-13 07:01N 47°35' W 122°21'0 0.0
2018-Sep-13 06:57N 47°35' W 122°21'0 0.0
2018-Sep-13 06:30N 47°35' W 122°21'0 0.0
2018-Sep-13 06:01N 47°35' W 122°21'0 0.0
2018-Sep-13 05:58N 47°35' W 122°21'0 0.0
2018-Sep-13 05:29N 47°35' W 122°21'0 0.0
2018-Sep-13 05:03N 47°35' W 122°21'0 0.0
2018-Sep-13 04:58N 47°35' W 122°21'0 0.0
2018-Sep-13 04:28N 47°35' W 122°21'0 0.0
2018-Sep-13 04:03N 47°35' W 122°21'0 0.0
2018-Sep-13 03:57N 47°35' W 122°21'0 0.0
2018-Sep-13 03:27N 47°35' W 122°21'0 0.0
2018-Sep-13 03:02N 47°35' W 122°21'0 0.0
2018-Sep-13 02:58N 47°35' W 122°21'0 0.0
2018-Sep-13 02:28N 47°35' W 122°21'0 0.0
2018-Sep-13 02:03N 47°35' W 122°21'0 0.4
2018-Sep-13 02:00N 47°35' W 122°21'0 0.0
2018-Sep-13 01:30N 47°35' W 122°21'0 0.0
2018-Sep-13 01:02N 47°35' W 122°21'0 0.0
2018-Sep-13 00:59N 47°35' W 122°21'0 0.0
2018-Sep-13 00:29N 47°35' W 122°21'0 0.0
2018-Sep-13 00:01N 47°35' W 122°21'0 0.0
2018-Sep-12 23:58N 47°35' W 122°21'0 0.0
2018-Sep-12 23:30N 47°35' W 122°21'0 0.0
2018-Sep-12 23:01N 47°35' W 122°21'0 0.1
2018-Sep-12 22:58N 47°35' W 122°21'0 0.0
2018-Sep-12 22:29N 47°35' W 122°21'0 0.0
2018-Sep-12 22:01N 47°35' W 122°21'0 0.1
2018-Sep-12 21:58N 47°35' W 122°21'0 0.0
2018-Sep-12 21:28N 47°35' W 122°21'0 0.0
2018-Sep-12 21:02N 47°35' W 122°21'0 0.0
2018-Sep-12 20:58N 47°35' W 122°21'0 0.0
2018-Sep-12 20:27N 47°35' W 122°21'0 0.0
2018-Sep-12 20:02N 47°35' W 122°21'0 0.0
2018-Sep-12 19:59N 47°35' W 122°21'0 0.0
2018-Sep-12 19:24N 47°35' W 122°21'0 0.0
2018-Sep-12 19:01N 47°35' W 122°21'0 0.1
2018-Sep-12 18:58N 47°35' W 122°21'0 0.1
2018-Sep-12 18:29N 47°35' W 122°21'0 0.1
2018-Sep-12 18:01N 47°35' W 122°21'0 0.0
2018-Sep-12 17:58N 47°35' W 122°21'0 0.0
2018-Sep-12 17:28N 47°35' W 122°21'0 0.0
2018-Sep-12 17:02N 47°35' W 122°21'0 0.1
2018-Sep-12 16:59N 47°35' W 122°21'0 0.0
2018-Sep-12 16:29N 47°35' W 122°21'0 0.0
2018-Sep-12 16:01N 47°35' W 122°21'0 0.0
2018-Sep-12 15:58N 47°35' W 122°21'0 0.0
2018-Sep-12 15:28N 47°35' W 122°21'0 0.0
2018-Sep-12 15:02N 47°35' W 122°21'0 0.0
2018-Sep-12 15:00N 47°35' W 122°21'0 0.0
2018-Sep-12 14:29N 47°35' W 122°21'0 0.0
2018-Sep-12 13:58N 47°35' W 122°21'0 0.0
2018-Sep-12 13:30N 47°35' W 122°21'0 0.0
2018-Sep-12 13:01N 47°35' W 122°21'0 0.0
2018-Sep-12 13:00N 47°35' W 122°21'0 0.4
2018-Sep-12 12:30N 47°35' W 122°21'0 0.0
2018-Sep-12 12:03N 47°35' W 122°21'0 1.9
2018-Sep-12 12:00N 47°36' W 122°21'3 5.4
2018-Sep-12 11:30N 47°37' W 122°24'612.7
2018-Sep-12 11:03N 47°42' W 122°28'114.8
2018-Sep-12 11:00N 47°43' W 122°28'917.4
2018-Sep-12 10:30N 47°51' W 122°29'920.4
2018-Sep-12 10:03N 47°59' W 122°36'121.3
2018-Sep-12 10:00N 47°60' W 122°37'1320.8
2018-Sep-12 09:22N 48°11' W 122°48'620.5
2018-Sep-12 09:03N 48°12' W 122°58'120.1
2018-Sep-12 09:00N 48°12' W 122°59'1020.2
2018-Sep-12 08:30N 48°11' W 123°14'613.4
2018-Sep-12 08:03N 48°10' W 123°23'0 8.9
2018-Sep-12 08:00N 48°10' W 123°24'5 8.5
2018-Sep-12 07:28N 48°12' W 123°30'713.0
2018-Sep-12 06:54N 48°14' W 123°41'512.2
2018-Sep-12 06:28N 48°14' W 123°49'512.6
2018-Sep-12 06:02N 48°14' W 123°57'113.2
2018-Sep-12 05:58N 48°14' W 123°58'613.5
2018-Sep-12 05:30N 48°17' W 124°06'613.6
2018-Sep-12 05:03N 48°19' W 124°15'113.4
2018-Sep-12 05:00N 48°20' W 124°16'713.6
2018-Sep-12 04:29N 48°23' W 124°25'613.6
2018-Sep-12 04:03N 48°25' W 124°33'113.3
2018-Sep-12 04:00N 48°26' W 124°34'713.4
2018-Sep-12 03:30N 48°28' W 124°43'613.0
2018-Sep-12 03:02N 48°28' W 124°53'112.9
2018-Sep-12 02:59N 48°28' W 124°54'611.2
2018-Sep-12 02:29N 48°27' W 125°02'612.9
2018-Sep-12 02:03N 48°21' W 125°05'012.9
2018-Sep-12 02:00N 48°21' W 125°05'713.3
2018-Sep-12 01:30N 48°15' W 125°09'612.7
2018-Sep-12 01:03N 48°10' W 125°13'212.9
2018-Sep-12 00:52N 48°07' W 125°14'613.0
2018-Sep-12 00:26N 48°02' W 125°17'8313.5
2018-Sep-11 18:19N 46°40' W 125°20'414.0
2018-Sep-11 18:02N 46°36' W 125°20'314.3
2018-Sep-11 17:48N 46°32' W 125°20'414.3
2018-Sep-11 17:30N 46°28' W 125°20'614.3
2018-Sep-11 17:03N 46°22' W 125°20'114.6
2018-Sep-11 17:00N 46°21' W 125°20'714.1
2018-Sep-11 16:30N 46°14' W 125°20'614.0
2018-Sep-11 16:03N 46°07' W 125°19'213.8
2018-Sep-11 15:57N 46°06' W 125°19'613.8
2018-Sep-11 15:30N 45°60' W 125°19'613.7
2018-Sep-11 15:03N 45°54' W 125°19'113.7
2018-Sep-11 15:00N 45°53' W 125°19'713.8
2018-Sep-11 14:30N 45°46' W 125°19'913.9
2018-Sep-11 13:52N 45°37' W 125°18'613.7
2018-Sep-11 13:28N 45°32' W 125°19'613.7
2018-Sep-11 13:03N 45°26' W 125°18'114.3
2018-Sep-11 13:00N 45°25' W 125°18'713.7
2018-Sep-11 12:30N 45°19' W 125°18'613.8
2018-Sep-11 12:03N 45°12' W 125°18'113.7
2018-Sep-11 12:00N 45°12' W 125°18'813.8
2018-Sep-11 11:25N 45°04' W 125°17'  
Track history (hours):
 
Tides and Currents Weather Stations Pressure Air Temp Water Temp Dewpoint Dewpoint Depression Visibility Wind Speed Wind Dir Waves Ship Positions

Nyk Romulus

Last reported at 2018-Sep-21 03:47 UTC. Time now 2018-Sep-22 01:06 UTC.
Position N 26°30' W 114°45'.

Length 294 m; draft 10.2 m.

Type: Cargo ship. MMSI: 563079000.

Date/timePositionNaut miles runAvg speedWind from/ knotsBaromVisibWave heightAir tempDewpointWater temp
2018-Sep-21 03:47N 26°30' W 114°45'721.4
2018-Sep-21 03:27N 26°35' W 114°50'2221.3
2018-Sep-21 02:24N 26°53' W 115°05'1821.0
2018-Sep-21 01:34N 27°08' W 115°17'120.6
2018-Sep-21 01:30N 27°09' W 115°18'920.6
2018-Sep-21 01:03N 27°16' W 115°24'120.9
2018-Sep-21 01:00N 27°17' W 115°24'3520.8
2018-Sep-20 23:18N 27°46' W 115°48'18320.3
2018-Sep-20 14:16N 30°37' W 117°01'720.0
2018-Sep-20 13:56N 30°43' W 117°04'1920.2
2018-Sep-20 13:00N 31°01' W 117°11'1020.4
2018-Sep-20 12:30N 31°11' W 117°15'920.1
2018-Sep-20 12:03N 31°19' W 117°18'119.8
2018-Sep-20 12:00N 31°20' W 117°18'1020.0
2018-Sep-20 11:31N 31°30' W 117°23'919.8
2018-Sep-20 11:04N 31°38' W 117°26'119.4
2018-Sep-20 11:00N 31°39' W 117°26'1019.8
2018-Sep-20 10:30N 31°48' W 117°30'920.3
2018-Sep-20 10:04N 31°57' W 117°33'119.8
2018-Sep-20 10:00N 31°58' W 117°34'1020.4
2018-Sep-20 09:30N 32°08' W 117°38'920.4
2018-Sep-20 09:03N 32°16' W 117°41'120.7
2018-Sep-20 09:00N 32°17' W 117°41'1020.3
2018-Sep-20 08:30N 32°27' W 117°45'920.6
2018-Sep-20 08:03N 32°36' W 117°49'120.6
2018-Sep-20 08:00N 32°37' W 117°49'1020.2
2018-Sep-20 07:30N 32°46' W 117°54'920.3
2018-Sep-20 07:03N 32°55' W 117°57'120.5
2018-Sep-20 07:00N 32°56' W 117°58'918.0
2018-Sep-20 06:30N 33°04' W 118°00'510.3
2018-Sep-20 06:03N 33°09' W 118°02'110.2
2018-Sep-20 06:00N 33°09' W 118°02'510.0
2018-Sep-20 05:30N 33°14' W 118°04'4 9.9
2018-Sep-20 05:03N 33°18' W 118°06'0 9.8
2018-Sep-20 05:00N 33°19' W 118°06'5 9.8
2018-Sep-20 04:30N 33°23' W 118°08'410.0
2018-Sep-20 04:03N 33°28' W 118°10'110.0
2018-Sep-20 04:00N 33°28' W 118°10'510.0
2018-Sep-20 03:30N 33°33' W 118°12'510.0
2018-Sep-20 03:03N 33°37' W 118°13'010.1
2018-Sep-20 03:00N 33°38' W 118°14'5 9.7
2018-Sep-20 02:30N 33°42' W 118°15'3 6.0
2018-Sep-20 02:03N 33°45' W 118°17'0 4.2
2018-Sep-20 02:00N 33°45' W 118°16'1 1.8
2018-Sep-20 01:30N 33°46' W 118°17'0 0.0
2018-Sep-20 01:03N 33°46' W 118°17'0 0.1
2018-Sep-20 01:00N 33°46' W 118°17'0 0.0
2018-Sep-20 00:30N 33°46' W 118°17'0 0.0
2018-Sep-20 00:03N 33°46' W 118°17'0 0.0
2018-Sep-20 00:00N 33°46' W 118°17'0 0.0
2018-Sep-19 23:30N 33°46' W 118°17'0 0.0
2018-Sep-19 23:03N 33°46' W 118°17'0 0.0
2018-Sep-19 23:00N 33°46' W 118°17'0 0.0
2018-Sep-19 22:30N 33°46' W 118°17'0 0.0
2018-Sep-19 22:03N 33°46' W 118°17'0 0.1
2018-Sep-19 22:00N 33°46' W 118°17'0 0.0
2018-Sep-19 21:30N 33°46' W 118°17'0 0.0
2018-Sep-19 21:03N 33°46' W 118°17'0 0.0
2018-Sep-19 21:00N 33°46' W 118°17'0 0.0
2018-Sep-19 20:30N 33°46' W 118°17'0 0.0
2018-Sep-19 20:03N 33°46' W 118°17'0 0.1
2018-Sep-19 20:00N 33°46' W 118°17'0 0.0
2018-Sep-19 19:30N 33°46' W 118°17'0 0.0
2018-Sep-19 19:03N 33°46' W 118°17'0 0.0
2018-Sep-19 19:00N 33°46' W 118°17'0 0.0
2018-Sep-19 18:30N 33°46' W 118°17'0 0.0
2018-Sep-19 18:03N 33°46' W 118°17'0 0.0
2018-Sep-19 18:00N 33°46' W 118°17'0 0.0
2018-Sep-19 17:30N 33°46' W 118°17'0 0.0
2018-Sep-19 17:03N 33°46' W 118°17'0 0.0
2018-Sep-19 17:00N 33°46' W 118°17'0 0.0
2018-Sep-19 16:30N 33°46' W 118°17'0 0.0
2018-Sep-19 16:03N 33°46' W 118°17'0 0.1
2018-Sep-19 16:00N 33°46' W 118°17'0 0.0
2018-Sep-19 15:30N 33°46' W 118°17'0 0.0
2018-Sep-19 15:03N 33°46' W 118°17'0 0.0
2018-Sep-19 15:00N 33°46' W 118°17'0 0.0
2018-Sep-19 14:03N 33°46' W 118°17'0 0.0
2018-Sep-19 13:30N 33°46' W 118°17'0 0.0
2018-Sep-19 13:03N 33°46' W 118°17'0 0.0
2018-Sep-19 13:00N 33°46' W 118°17'0 0.0
2018-Sep-19 12:30N 33°46' W 118°17'0 0.0
2018-Sep-19 12:03N 33°46' W 118°17'0 0.1
2018-Sep-19 12:00N 33°46' W 118°17'0 0.0
2018-Sep-19 11:30N 33°46' W 118°17'0 0.0
2018-Sep-19 11:03N 33°46' W 118°17'0 0.0
2018-Sep-19 11:00N 33°46' W 118°17'0 0.0
2018-Sep-19 10:30N 33°46' W 118°17'0 0.0
2018-Sep-19 10:03N 33°46' W 118°17'0 0.0
2018-Sep-19 10:00N 33°46' W 118°17'0 0.0
2018-Sep-19 09:30N 33°46' W 118°17'0 0.0
2018-Sep-19 09:03N 33°46' W 118°17'0 0.0
2018-Sep-19 09:00N 33°46' W 118°17'0 0.0
2018-Sep-19 08:30N 33°46' W 118°17'0 0.0
2018-Sep-19 08:03N 33°46' W 118°17'0 0.0
2018-Sep-19 08:00N 33°46' W 118°17'0 0.0
2018-Sep-19 07:30N 33°46' W 118°17'0 0.0
2018-Sep-19 07:03N 33°46' W 118°17'0 0.0
2018-Sep-19 07:00N 33°46' W 118°17'0 0.0
2018-Sep-19 06:30N 33°46' W 118°17'0 0.0
2018-Sep-19 06:03N 33°46' W 118°17'0 0.0
2018-Sep-19 06:00N 33°46' W 118°17'0 0.0
2018-Sep-19 05:30N 33°46' W 118°17'0 0.0
2018-Sep-19 05:03N 33°46' W 118°17'0 0.0
2018-Sep-19 05:00N 33°46' W 118°17'0 0.0
2018-Sep-19 04:30N 33°46' W 118°17'0 0.0
2018-Sep-19 04:03N 33°46' W 118°17'0 0.0
2018-Sep-19 04:00N 33°46' W 118°17'0 0.0
2018-Sep-19 03:30N 33°46' W 118°17'0 0.0
2018-Sep-19 03:03N 33°46' W 118°17'0 0.0
2018-Sep-19 03:00N 33°46' W 118°17'0 0.0
2018-Sep-19 02:30N 33°46' W 118°17'0 0.0
2018-Sep-19 02:03N 33°46' W 118°17'0 0.0
2018-Sep-19 02:00N 33°46' W 118°17'0 0.0
2018-Sep-19 01:30N 33°46' W 118°17'0 0.0
2018-Sep-19 01:03N 33°46' W 118°17'0 0.0
2018-Sep-19 01:00N 33°46' W 118°17'0 0.0
2018-Sep-19 00:30N 33°46' W 118°17'0 0.0
2018-Sep-19 00:03N 33°46' W 118°17'0 0.0
2018-Sep-19 00:00N 33°46' W 118°17'0 0.0
2018-Sep-18 23:30N 33°46' W 118°17'0 0.0
2018-Sep-18 23:03N 33°46' W 118°17'0 0.1
2018-Sep-18 23:00N 33°46' W 118°17'0 0.0
2018-Sep-18 22:30N 33°46' W 118°17'0 0.0
2018-Sep-18 22:03N 33°46' W 118°17'0 0.0
2018-Sep-18 22:00N 33°46' W 118°17'0 0.0
2018-Sep-18 21:30N 33°46' W 118°17'0 0.0
2018-Sep-18 21:03N 33°46' W 118°17'0 0.0
2018-Sep-18 21:00N 33°46' W 118°17'0 0.0
2018-Sep-18 20:30N 33°46' W 118°17'0 0.0
2018-Sep-18 20:03N 33°46' W 118°17'0 0.1
2018-Sep-18 20:00N 33°46' W 118°17'0 0.0
2018-Sep-18 19:30N 33°46' W 118°17'0 0.0
2018-Sep-18 19:03N 33°46' W 118°17'0 0.1
2018-Sep-18 19:00N 33°46' W 118°17'0 0.0
2018-Sep-18 18:30N 33°46' W 118°17'0 0.0
2018-Sep-18 18:03N 33°46' W 118°17'0 0.2
2018-Sep-18 18:00N 33°46' W 118°17'0 0.0
2018-Sep-18 17:30N 33°46' W 118°17'0 0.0
2018-Sep-18 17:03N 33°46' W 118°17'0 0.1
2018-Sep-18 17:00N 33°46' W 118°17'0 0.0
2018-Sep-18 16:30N 33°46' W 118°17'0 0.0
2018-Sep-18 16:03N 33°46' W 118°17'0 0.0
2018-Sep-18 16:00N 33°46' W 118°17'0 0.0
2018-Sep-18 15:30N 33°46' W 118°17'0 0.0
2018-Sep-18 15:03N 33°46' W 118°17'0 0.1
2018-Sep-18 15:00N 33°46' W 118°17'2 1.7
2018-Sep-18 14:03N 33°44' W 118°17'0 4.4
2018-Sep-18 14:00N 33°44' W 118°16'3 6.4
2018-Sep-18 13:30N 33°41' W 118°14'4 8.0
2018-Sep-18 13:03N 33°38' W 118°14'0 7.5
2018-Sep-18 13:01N 33°37' W 118°14'3 6.7
2018-Sep-18 12:30N 33°36' W 118°18'4 8.4
2018-Sep-18 12:03N 33°37' W 118°23'0 8.7
2018-Sep-18 12:00N 33°37' W 118°23'4 9.0
2018-Sep-18 11:30N 33°40' W 118°28'4 9.0
2018-Sep-18 11:03N 33°42' W 118°32'0 8.6
2018-Sep-18 11:00N 33°42' W 118°32'5 9.1
2018-Sep-18 10:30N 33°44' W 118°37'4 9.0
2018-Sep-18 10:03N 33°46' W 118°41'0 8.5
2018-Sep-18 10:00N 33°46' W 118°42'4 8.9
2018-Sep-18 09:30N 33°49' W 118°46'4 9.2
2018-Sep-18 09:03N 33°51' W 118°51'110.4
2018-Sep-18 09:00N 33°51' W 118°51'611.9
2018-Sep-18 08:30N 33°54' W 118°57'511.9
2018-Sep-18 08:03N 33°56' W 119°03'112.2
2018-Sep-18 08:00N 33°57' W 119°04'714.8
2018-Sep-18 07:30N 34°00' W 119°11'716.0
2018-Sep-18 07:04N 34°03' W 119°19'116.5
2018-Sep-18 07:01N 34°04' W 119°20'816.2
2018-Sep-18 06:30N 34°06' W 119°30'715.6
2018-Sep-18 06:03N 34°07' W 119°38'115.5
2018-Sep-18 06:00N 34°08' W 119°39'815.7
2018-Sep-18 05:30N 34°10' W 119°48'715.8
2018-Sep-18 05:03N 34°12' W 119°56'116.3
2018-Sep-18 05:00N 34°12' W 119°57'815.8
2018-Sep-18 04:31N 34°14' W 120°06'716.0
2018-Sep-18 04:03N 34°16' W 120°15'116.1
2018-Sep-18 04:00N 34°16' W 120°16'815.9
2018-Sep-18 03:29N 34°18' W 120°25'715.7
2018-Sep-18 03:02N 34°20' W 120°34'116.3
2018-Sep-18 03:01N 34°20' W 120°34'815.6
2018-Sep-18 02:30N 34°22' W 120°43'715.6
2018-Sep-18 02:04N 34°24' W 120°52'115.4
2018-Sep-18 02:01N 34°24' W 120°53'714.8
2018-Sep-18 01:31N 34°29' W 120°59'715.6
2018-Sep-18 01:03N 34°35' W 121°04'115.7
2018-Sep-18 01:00N 34°36' W 121°05'612.6
2018-Sep-18 00:30N 34°41' W 121°09'817.0
2018-Sep-18 00:03N 34°47' W 121°15'117.8
2018-Sep-18 00:00N 34°48' W 121°15'917.5
2018-Sep-17 23:29N 34°55' W 121°22'717.3
2018-Sep-17 23:03N 35°01' W 121°27'117.1
2018-Sep-17 23:00N 35°02' W 121°28'917.8
2018-Sep-17 22:30N 35°09' W 121°35'817.7
2018-Sep-17 22:03N 35°15' W 121°40'118.0
2018-Sep-17 22:00N 35°16' W 121°41'917.5
2018-Sep-17 21:30N 35°23' W 121°47'817.6
2018-Sep-17 21:03N 35°30' W 121°53'118.0
2018-Sep-17 21:00N 35°30' W 121°53'918.0
2018-Sep-17 20:30N 35°38' W 121°60'817.7
2018-Sep-17 20:03N 35°45' W 122°03'117.7
2018-Sep-17 20:00N 35°46' W 122°04'917.7
2018-Sep-17 19:30N 35°54' W 122°08'817.7
2018-Sep-17 19:03N 36°02' W 122°11'118.1
2018-Sep-17 19:00N 36°03' W 122°11'918.1
2018-Sep-17 18:30N 36°11' W 122°15'817.9
2018-Sep-17 18:03N 36°18' W 122°19'117.9
2018-Sep-17 18:00N 36°19' W 122°19'917.8
2018-Sep-17 17:30N 36°28' W 122°23'817.7
2018-Sep-17 17:03N 36°35' W 122°27'117.6
2018-Sep-17 17:00N 36°36' W 122°27'917.9
2018-Sep-17 16:30N 36°44' W 122°31'818.2
2018-Sep-17 16:03N 36°52' W 122°35'117.4
2018-Sep-17 16:00N 36°53' W 122°35'918.5
2018-Sep-17 15:30N 37°01' W 122°39'920.1
2018-Sep-17 15:03N 37°10' W 122°43'119.5
2018-Sep-17 15:00N 37°11' W 122°43'816.4
2018-Sep-17 14:30N 37°19' W 122°44'611.9
2018-Sep-17 14:00N 37°25' W 122°44'612.0
2018-Sep-17 13:30N 37°31' W 122°44'511.9
2018-Sep-17 13:03N 37°36' W 122°44'111.9
2018-Sep-17 13:00N 37°37' W 122°44'611.5
2018-Sep-17 12:30N 37°42' W 122°42'510.3
2018-Sep-17 12:03N 37°46' W 122°38'114.8
2018-Sep-17 12:00N 37°46' W 122°37'714.8
2018-Sep-17 11:30N 37°49' W 122°29'511.4
2018-Sep-17 11:03N 37°48' W 122°22'110.6
2018-Sep-17 11:00N 37°48' W 122°22'3 6.4
2018-Sep-17 10:30N 37°48' W 122°18'1 1.2
2018-Sep-17 10:03N 37°48' W 122°17'0 0.9
2018-Sep-17 10:00N 37°48' W 122°17'0 1.0
2018-Sep-17 09:30N 37°48' W 122°18'1 3.3
2018-Sep-17 09:03N 37°48' W 122°19'0 0.0
2018-Sep-17 08:57N 37°48' W 122°19'0 0.0
2018-Sep-17 08:27N 37°48' W 122°19'0 0.0
2018-Sep-17 08:00N 37°48' W 122°19'0 0.0
2018-Sep-17 07:30N 37°48' W 122°19'0 0.0
2018-Sep-17 07:03N 37°48' W 122°19'0 0.1
2018-Sep-17 07:00N 37°48' W 122°19'0 0.0
2018-Sep-17 06:30N 37°48' W 122°19'0 0.0
2018-Sep-17 06:03N 37°48' W 122°19'0 0.1
2018-Sep-17 05:57N 37°48' W 122°19'0 0.0
2018-Sep-17 05:30N 37°48' W 122°19'0 0.0
2018-Sep-17 05:03N 37°48' W 122°19'0 0.0
2018-Sep-17 05:00N 37°48' W 122°19'0 0.0
2018-Sep-17 04:30N 37°48' W 122°19'0 0.0
2018-Sep-17 04:03N 37°48' W 122°19'0 0.1
2018-Sep-17 03:57N 37°48' W 122°19'0 0.0
2018-Sep-17 03:27N 37°48' W 122°19'0 0.0
2018-Sep-17 03:03N 37°48' W 122°19'0 0.0
2018-Sep-17 03:00N 37°48' W 122°19'0 0.0
2018-Sep-17 02:27N 37°48' W 122°19'0 0.0
2018-Sep-17 02:03N 37°48' W 122°19'0 0.1
2018-Sep-17 01:57N 37°48' W 122°19'0 0.0
2018-Sep-17 01:27N 37°48' W 122°19'0 0.0
2018-Sep-17 01:03N 37°48' W 122°19'0 0.1
2018-Sep-17 01:00N 37°48' W 122°19'0 0.0
2018-Sep-17 00:30N 37°48' W 122°19'0 0.0
2018-Sep-17 00:03N 37°48' W 122°19'0 0.0
2018-Sep-16 23:57N 37°48' W 122°19'0 0.0
2018-Sep-16 23:30N 37°48' W 122°19'0 0.0
2018-Sep-16 23:03N 37°48' W 122°19'0 0.0
2018-Sep-16 23:00N 37°48' W 122°19'0 0.0
2018-Sep-16 22:30N 37°48' W 122°19'0 0.0
2018-Sep-16 22:03N 37°48' W 122°19'0 0.1
2018-Sep-16 22:00N 37°48' W 122°19'0 0.0
2018-Sep-16 21:30N 37°48' W 122°19'0 0.0
2018-Sep-16 21:03N 37°48' W 122°19'0 0.1
2018-Sep-16 21:00N 37°48' W 122°19'0 0.0
2018-Sep-16 20:30N 37°48' W 122°19'0 0.0
2018-Sep-16 20:03N 37°48' W 122°19'0 0.0
2018-Sep-16 19:57N 37°48' W 122°19'0 0.0
2018-Sep-16 19:27N 37°48' W 122°19'0 0.0
2018-Sep-16 19:03N 37°48' W 122°19'0 0.0
2018-Sep-16 19:00N 37°48' W 122°19'0 0.0
2018-Sep-16 18:24N 37°48' W 122°19'0 0.0
2018-Sep-16 18:03N 37°48' W 122°19'0 0.0
2018-Sep-16 18:00N 37°48' W 122°19'0 0.0
2018-Sep-16 17:27N 37°48' W 122°19'0 0.0
2018-Sep-16 17:03N 37°48' W 122°19'0 0.0
2018-Sep-16 17:00N 37°48' W 122°19'0 0.0
2018-Sep-16 16:30N 37°48' W 122°19'0 0.0
2018-Sep-16 16:03N 37°48' W 122°19'0 0.1
2018-Sep-16 15:57N 37°48' W 122°19'0 0.0
2018-Sep-16 15:30N 37°48' W 122°19'0 0.0
2018-Sep-16 15:03N 37°48' W 122°19'0 0.1
2018-Sep-16 15:00N 37°48' W 122°19'0 0.0
2018-Sep-16 14:30N 37°48' W 122°19'0 0.0
2018-Sep-16 13:30N 37°48' W 122°19'0 0.2
2018-Sep-16 13:03N 37°48' W 122°20'0 1.0
2018-Sep-16 13:00N 37°48' W 122°20'3 4.9
2018-Sep-16 12:30N 37°46' W 122°22'1 2.5
2018-Sep-16 12:01N 37°45' W 122°21'0 0.0
2018-Sep-16 11:58N 37°45' W 122°21'0 0.0
2018-Sep-16 11:28N 37°45' W 122°21'0 0.0
2018-Sep-16 11:01N 37°45' W 122°21'0 0.1
2018-Sep-16 10:55N 37°45' W 122°21'0 0.1
2018-Sep-16 10:25N 37°45' W 122°21'0 0.0
2018-Sep-16 10:01N 37°45' W 122°21'0 0.1
2018-Sep-16 09:58N 37°45' W 122°21'0 0.0
2018-Sep-16 09:25N 37°45' W 122°21'0 0.0
2018-Sep-16 09:01N 37°45' W 122°21'0 0.1
2018-Sep-16 08:58N 37°45' W 122°21'0 0.0
2018-Sep-16 08:28N 37°45' W 122°21'0 0.1
2018-Sep-16 07:49N 37°46' W 122°21'0 0.2
2018-Sep-16 07:28N 37°46' W 122°21'0 0.2
2018-Sep-16 07:01N 37°46' W 122°21'0 0.0
2018-Sep-16 06:55N 37°46' W 122°21'0 0.1
2018-Sep-16 06:28N 37°46' W 122°21'0 0.1
2018-Sep-16 06:01N 37°46' W 122°21'0 0.0
2018-Sep-16 05:58N 37°46' W 122°21'0 0.0
2018-Sep-16 05:28N 37°46' W 122°21'0 0.1
2018-Sep-16 05:01N 37°46' W 122°21'0 0.0
2018-Sep-16 04:58N 37°46' W 122°21'0 0.1
2018-Sep-16 04:28N 37°46' W 122°21'0 0.0
2018-Sep-16 04:01N 37°46' W 122°21'0 0.0
2018-Sep-16 03:58N 37°46' W 122°21'0 0.0
2018-Sep-16 03:25N 37°46' W 122°21'0 0.1
2018-Sep-16 03:01N 37°46' W 122°21'0 0.0
2018-Sep-16 02:58N 37°46' W 122°21'0 0.0
2018-Sep-16 02:28N 37°46' W 122°21'0 0.2
2018-Sep-16 01:55N 37°46' W 122°21'0 0.0
2018-Sep-16 01:28N 37°46' W 122°21'0 0.1
2018-Sep-16 01:01N 37°46' W 122°20'0 0.1
2018-Sep-16 00:55N 37°46' W 122°20'0 0.1
2018-Sep-16 00:25N 37°46' W 122°20'0 0.0
2018-Sep-16 00:01N 37°46' W 122°20'0 0.1
2018-Sep-15 23:58N 37°46' W 122°20'0 0.9
2018-Sep-15 23:30N 37°45' W 122°21'4 7.9
2018-Sep-15 23:03N 37°48' W 122°23'111.7
2018-Sep-15 23:00N 37°49' W 122°23'611.9
2018-Sep-15 22:30N 37°48' W 122°31'715.7
2018-Sep-15 22:03N 37°46' W 122°39'111.5
2018-Sep-15 22:00N 37°46' W 122°40'4 8.3
2018-Sep-15 21:30N 37°46' W 122°45'3 7.1
2018-Sep-15 21:03N 37°47' W 122°49'0 7.3
2018-Sep-15 21:00N 37°48' W 122°50'4 8.7
2018-Sep-15 20:30N 37°50' W 122°54'4 9.0
2018-Sep-15 20:03N 37°52' W 122°59'0 8.9
2018-Sep-15 20:00N 37°52' W 122°59'5 9.3
2018-Sep-15 19:30N 37°54' W 123°04'4 9.3
2018-Sep-15 19:03N 37°56' W 123°09'0 8.8
2018-Sep-15 19:00N 37°57' W 123°09'5 9.1
2018-Sep-15 18:30N 37°60' W 123°14'4 9.4
2018-Sep-15 18:03N 38°03' W 123°17'010.0
2018-Sep-15 18:00N 38°03' W 123°17'5 9.9
2018-Sep-15 17:30N 38°07' W 123°21'510.7
2018-Sep-15 17:03N 38°10' W 123°26'112.6
2018-Sep-15 17:00N 38°11' W 123°27'612.1
2018-Sep-15 16:30N 38°14' W 123°33'510.0
2018-Sep-15 16:03N 38°17' W 123°38'0 8.9
2018-Sep-15 16:00N 38°17' W 123°38'713.8
2018-Sep-15 15:30N 38°21' W 123°46'614.2
2018-Sep-15 15:03N 38°25' W 123°52'713.5
2018-Sep-15 14:31N 38°29' W 123°60'713.1
2018-Sep-15 14:01N 38°33' W 124°07'712.8
2018-Sep-15 13:28N 38°39' W 124°11'613.7
2018-Sep-15 13:04N 38°44' W 124°14'2013.5
2018-Sep-15 11:36N 39°02' W 124°24'114.0
2018-Sep-15 11:30N 39°03' W 124°24'36314.1
2018-Sep-14 09:43N 45°04' W 125°18'815.1
2018-Sep-14 09:11N 45°12' W 125°18'314.8
2018-Sep-14 08:58N 45°15' W 125°18'814.7
2018-Sep-14 08:25N 45°23' W 125°18'514.9
2018-Sep-14 08:03N 45°29' W 125°18'115.0
2018-Sep-14 08:00N 45°29' W 125°18'715.0
2018-Sep-14 07:31N 45°37' W 125°18'715.0
2018-Sep-14 07:03N 45°44' W 125°18'114.7
2018-Sep-14 06:59N 45°45' W 125°18'715.0
2018-Sep-14 06:30N 45°52' W 125°19'715.1
2018-Sep-14 06:03N 45°59' W 125°19'115.1
2018-Sep-14 06:00N 45°59' W 125°19'715.0
2018-Sep-14 05:30N 46°07' W 125°19'715.0
2018-Sep-14 05:03N 46°14' W 125°19'114.9
2018-Sep-14 05:00N 46°14' W 125°19'814.9
2018-Sep-14 04:30N 46°22' W 125°20'714.9
2018-Sep-14 04:03N 46°29' W 125°20'114.1
2018-Sep-14 04:00N 46°29' W 125°20'714.7
2018-Sep-14 03:31N 46°37' W 125°20'714.7
2018-Sep-14 03:03N 46°43' W 125°20'115.0
2018-Sep-14 03:00N 46°44' W 125°20'815.0
2018-Sep-14 02:30N 46°52' W 125°21'714.9
2018-Sep-14 02:03N 46°58' W 125°21'115.2
2018-Sep-14 02:00N 46°59' W 125°21'714.9
2018-Sep-14 01:31N 47°06' W 125°21'914.9
2018-Sep-14 00:53N 47°16' W 125°21'4414.5
2018-Sep-13 21:51N 47°60' W 125°21'1114.9
2018-Sep-13 21:08N 48°10' W 125°23'114.9
2018-Sep-13 21:03N 48°11' W 125°23'114.5
2018-Sep-13 21:01N 48°12' W 125°23'913.9
2018-Sep-13 20:21N 48°20' W 125°15'514.0
2018-Sep-13 20:02N 48°23' W 125°10'014.1
2018-Sep-13 20:00N 48°23' W 125°10'714.6
2018-Sep-13 19:30N 48°29' W 125°03'614.0
2018-Sep-13 19:04N 48°31' W 124°54'116.0
2018-Sep-13 19:01N 48°31' W 124°53'815.4
2018-Sep-13 18:31N 48°30' W 124°41'716.0
2018-Sep-13 18:04N 48°28' W 124°31'115.8
2018-Sep-13 18:01N 48°27' W 124°30'815.8
2018-Sep-13 17:31N 48°24' W 124°19'715.3
2018-Sep-13 17:03N 48°21' W 124°10'115.7
2018-Sep-13 17:00N 48°21' W 124°09'815.2
2018-Sep-13 16:30N 48°18' W 123°58'715.1
2018-Sep-13 16:03N 48°16' W 123°48'314.7
2018-Sep-13 15:51N 48°16' W 123°44'814.1
2018-Sep-13 15:17N 48°15' W 123°32'314.0
2018-Sep-13 15:04N 48°13' W 123°28'114.7
2018-Sep-13 15:01N 48°13' W 123°27'611.4
2018-Sep-13 14:30N 48°08' W 123°21'815.9
2018-Sep-13 13:59N 48°12' W 123°10'920.0
2018-Sep-13 13:30N 48°12' W 122°56'918.3
2018-Sep-13 13:02N 48°10' W 122°44'116.7
2018-Sep-13 13:00N 48°09' W 122°43'917.6
2018-Sep-13 12:30N 48°01' W 122°37'818.8
2018-Sep-13 12:03N 47°55' W 122°29'120.8
2018-Sep-13 12:00N 47°54' W 122°28'1020.8
2018-Sep-13 11:30N 47°44' W 122°26'817.6
2018-Sep-13 11:03N 47°36' W 122°23'0 6.2
2018-Sep-13 11:00N 47°36' W 122°23'2 3.5
2018-Sep-13 10:30N 47°35' W 122°21'0 0.0
2018-Sep-13 10:01N 47°35' W 122°21'0 0.0
2018-Sep-13 09:59N 47°35' W 122°21'0 0.0
2018-Sep-13 09:28N 47°35' W 122°21'0 0.0
2018-Sep-13 09:01N 47°35' W 122°21'0 0.1
2018-Sep-13 08:58N 47°35' W 122°21'0 0.0
2018-Sep-13 08:28N 47°35' W 122°21'0 0.0
2018-Sep-13 08:02N 47°35' W 122°21'0 0.0
2018-Sep-13 07:58N 47°35' W 122°21'0 0.0
2018-Sep-13 07:28N 47°35' W 122°21'0 0.0
2018-Sep-13 07:01N 47°35' W 122°21'0 0.0
2018-Sep-13 06:57N 47°35' W 122°21'0 0.0
2018-Sep-13 06:30N 47°35' W 122°21'0 0.0
2018-Sep-13 06:01N 47°35' W 122°21'0 0.0
2018-Sep-13 05:58N 47°35' W 122°21'0 0.0
2018-Sep-13 05:29N 47°35' W 122°21'0 0.0
2018-Sep-13 05:03N 47°35' W 122°21'0 0.0
2018-Sep-13 04:58N 47°35' W 122°21'0 0.0
2018-Sep-13 04:28N 47°35' W 122°21'0 0.0
2018-Sep-13 04:03N 47°35' W 122°21'0 0.0
2018-Sep-13 03:57N 47°35' W 122°21'0 0.0
2018-Sep-13 03:27N 47°35' W 122°21'0 0.0
2018-Sep-13 03:02N 47°35' W 122°21'0 0.0
2018-Sep-13 02:58N 47°35' W 122°21'0 0.0
2018-Sep-13 02:28N 47°35' W 122°21'0 0.0
2018-Sep-13 02:03N 47°35' W 122°21'0 0.4
2018-Sep-13 02:00N 47°35' W 122°21'0 0.0
2018-Sep-13 01:30N 47°35' W 122°21'0 0.0
2018-Sep-13 01:02N 47°35' W 122°21'0 0.0
2018-Sep-13 00:59N 47°35' W 122°21'0 0.0
2018-Sep-13 00:29N 47°35' W 122°21'0 0.0
2018-Sep-13 00:01N 47°35' W 122°21'0 0.0
2018-Sep-12 23:58N 47°35' W 122°21'0 0.0
2018-Sep-12 23:30N 47°35' W 122°21'0 0.0
2018-Sep-12 23:01N 47°35' W 122°21'0 0.1
2018-Sep-12 22:58N 47°35' W 122°21'0 0.0
2018-Sep-12 22:29N 47°35' W 122°21'0 0.0
2018-Sep-12 22:01N 47°35' W 122°21'0 0.1
2018-Sep-12 21:58N 47°35' W 122°21'0 0.0
2018-Sep-12 21:28N 47°35' W 122°21'0 0.0
2018-Sep-12 21:02N 47°35' W 122°21'0 0.0
2018-Sep-12 20:58N 47°35' W 122°21'0 0.0
2018-Sep-12 20:27N 47°35' W 122°21'0 0.0
2018-Sep-12 20:02N 47°35' W 122°21'0 0.0
2018-Sep-12 19:59N 47°35' W 122°21'0 0.0
2018-Sep-12 19:24N 47°35' W 122°21'0 0.0
2018-Sep-12 19:01N 47°35' W 122°21'0 0.1
2018-Sep-12 18:58N 47°35' W 122°21'0 0.1
2018-Sep-12 18:29N 47°35' W 122°21'0 0.1
2018-Sep-12 18:01N 47°35' W 122°21'0 0.0
2018-Sep-12 17:58N 47°35' W 122°21'0 0.0
2018-Sep-12 17:28N 47°35' W 122°21'0 0.0
2018-Sep-12 17:02N 47°35' W 122°21'0 0.1
2018-Sep-12 16:59N 47°35' W 122°21'0 0.0
2018-Sep-12 16:29N 47°35' W 122°21'0 0.0
2018-Sep-12 16:01N 47°35' W 122°21'0 0.0
2018-Sep-12 15:58N 47°35' W 122°21'0 0.0
2018-Sep-12 15:28N 47°35' W 122°21'0 0.0
2018-Sep-12 15:02N 47°35' W 122°21'0 0.0
2018-Sep-12 15:00N 47°35' W 122°21'0 0.0
2018-Sep-12 14:29N 47°35' W 122°21'0 0.0
2018-Sep-12 13:58N 47°35' W 122°21'0 0.0
2018-Sep-12 13:30N 47°35' W 122°21'0 0.0
2018-Sep-12 13:01N 47°35' W 122°21'0 0.0
2018-Sep-12 13:00N 47°35' W 122°21'0 0.4
2018-Sep-12 12:30N 47°35' W 122°21'0 0.0
2018-Sep-12 12:03N 47°35' W 122°21'0 1.9
2018-Sep-12 12:00N 47°36' W 122°21'3 5.4
2018-Sep-12 11:30N 47°37' W 122°24'612.7
2018-Sep-12 11:03N 47°42' W 122°28'114.8
2018-Sep-12 11:00N 47°43' W 122°28'917.4
2018-Sep-12 10:30N 47°51' W 122°29'920.4
2018-Sep-12 10:03N 47°59' W 122°36'121.3
2018-Sep-12 10:00N 47°60' W 122°37'1320.8
2018-Sep-12 09:22N 48°11' W 122°48'620.5
2018-Sep-12 09:03N 48°12' W 122°58'120.1
2018-Sep-12 09:00N 48°12' W 122°59'1020.2
2018-Sep-12 08:30N 48°11' W 123°14'613.4
2018-Sep-12 08:03N 48°10' W 123°23'0 8.9
2018-Sep-12 08:00N 48°10' W 123°24'5 8.5
2018-Sep-12 07:28N 48°12' W 123°30'713.0
2018-Sep-12 06:54N 48°14' W 123°41'512.2
2018-Sep-12 06:28N 48°14' W 123°49'512.6
2018-Sep-12 06:02N 48°14' W 123°57'113.2
2018-Sep-12 05:58N 48°14' W 123°58'613.5
2018-Sep-12 05:30N 48°17' W 124°06'613.6
2018-Sep-12 05:03N 48°19' W 124°15'113.4
2018-Sep-12 05:00N 48°20' W 124°16'713.6
2018-Sep-12 04:29N 48°23' W 124°25'613.6
2018-Sep-12 04:03N 48°25' W 124°33'113.3
2018-Sep-12 04:00N 48°26' W 124°34'713.4
2018-Sep-12 03:30N 48°28' W 124°43'613.0
2018-Sep-12 03:02N 48°28' W 124°53'112.9
2018-Sep-12 02:59N 48°28' W 124°54'611.2
2018-Sep-12 02:29N 48°27' W 125°02'612.9
2018-Sep-12 02:03N 48°21' W 125°05'012.9
2018-Sep-12 02:00N 48°21' W 125°05'713.3
2018-Sep-12 01:30N 48°15' W 125°09'612.7
2018-Sep-12 01:03N 48°10' W 125°13'212.9
2018-Sep-12 00:52N 48°07' W 125°14'613.0
2018-Sep-12 00:26N 48°02' W 125°17'8313.5
2018-Sep-11 18:19N 46°40' W 125°20'414.0
2018-Sep-11 18:02N 46°36' W 125°20'314.3
2018-Sep-11 17:48N 46°32' W 125°20'414.3
2018-Sep-11 17:30N 46°28' W 125°20'614.3
2018-Sep-11 17:03N 46°22' W 125°20'114.6
2018-Sep-11 17:00N 46°21' W 125°20'714.1
2018-Sep-11 16:30N 46°14' W 125°20'614.0
2018-Sep-11 16:03N 46°07' W 125°19'213.8
2018-Sep-11 15:57N 46°06' W 125°19'613.8
2018-Sep-11 15:30N 45°60' W 125°19'613.7
2018-Sep-11 15:03N 45°54' W 125°19'113.7
2018-Sep-11 15:00N 45°53' W 125°19'713.8
2018-Sep-11 14:30N 45°46' W 125°19'913.9
2018-Sep-11 13:52N 45°37' W 125°18'613.7
2018-Sep-11 13:28N 45°32' W 125°19'613.7
2018-Sep-11 13:03N 45°26' W 125°18'114.3
2018-Sep-11 13:00N 45°25' W 125°18'713.7
2018-Sep-11 12:30N 45°19' W 125°18'613.8
2018-Sep-11 12:03N 45°12' W 125°18'113.7
2018-Sep-11 12:00N 45°12' W 125°18'813.8
2018-Sep-11 11:25N 45°04' W 125°17'  

Dump ship's entire track history